sensor_id;sensor_type;location;lat;lon;timestamp;P1;durP1;ratioP1;P2;durP2;ratioP2
6751;SDS011;3413;47.680;9.166;2023-02-28T00:00:38;7.13;;;3.37;;
6751;SDS011;3413;47.680;9.166;2023-02-28T00:05:40;4.57;;;2.67;;
6751;SDS011;3413;47.680;9.166;2023-02-28T00:10:42;11.03;;;3.43;;
6751;SDS011;3413;47.680;9.166;2023-02-28T00:15:44;7.13;;;3.63;;
6751;SDS011;3413;47.680;9.166;2023-02-28T00:20:47;8.30;;;3.37;;
6751;SDS011;3413;47.680;9.166;2023-02-28T00:25:48;6.70;;;3.33;;
6751;SDS011;3413;47.680;9.166;2023-02-28T00:30:52;8.57;;;3.80;;
6751;SDS011;3413;47.680;9.166;2023-02-28T00:36:04;5.30;;;3.00;;
6751;SDS011;3413;47.680;9.166;2023-02-28T00:41:09;7.70;;;3.80;;
6751;SDS011;3413;47.680;9.166;2023-02-28T00:46:11;7.23;;;3.43;;
6751;SDS011;3413;47.680;9.166;2023-02-28T00:51:13;5.90;;;3.53;;
6751;SDS011;3413;47.680;9.166;2023-02-28T00:56:15;7.13;;;3.03;;
6751;SDS011;3413;47.680;9.166;2023-02-28T01:01:17;5.77;;;3.23;;
6751;SDS011;3413;47.680;9.166;2023-02-28T01:06:19;10.93;;;3.60;;
6751;SDS011;3413;47.680;9.166;2023-02-28T01:11:21;5.83;;;3.40;;
6751;SDS011;3413;47.680;9.166;2023-02-28T01:16:23;6.70;;;3.70;;
6751;SDS011;3413;47.680;9.166;2023-02-28T01:21:25;5.87;;;3.20;;
6751;SDS011;3413;47.680;9.166;2023-02-28T01:26:28;5.87;;;2.83;;
6751;SDS011;3413;47.680;9.166;2023-02-28T01:31:30;8.20;;;3.20;;
6751;SDS011;3413;47.680;9.166;2023-02-28T01:36:33;7.20;;;3.53;;
6751;SDS011;3413;47.680;9.166;2023-02-28T01:41:35;7.03;;;3.30;;
6751;SDS011;3413;47.680;9.166;2023-02-28T01:46:37;4.60;;;2.67;;
6751;SDS011;3413;47.680;9.166;2023-02-28T01:57:03;4.90;;;3.03;;
6751;SDS011;3413;47.680;9.166;2023-02-28T02:02:10;7.00;;;3.67;;
6751;SDS011;3413;47.680;9.166;2023-02-28T02:07:12;7.93;;;3.30;;
6751;SDS011;3413;47.680;9.166;2023-02-28T02:12:32;5.67;;;3.13;;
6751;SDS011;3413;47.680;9.166;2023-02-28T02:17:44;5.20;;;2.57;;
6751;SDS011;3413;47.680;9.166;2023-02-28T02:28:32;5.67;;;3.00;;
6751;SDS011;3413;47.680;9.166;2023-02-28T02:44:39;4.23;;;2.83;;
6751;SDS011;3413;47.680;9.166;2023-02-28T02:49:49;4.60;;;2.93;;
6751;SDS011;3413;47.680;9.166;2023-02-28T02:54:54;5.53;;;2.90;;
6751;SDS011;3413;47.680;9.166;2023-02-28T02:59:58;6.73;;;3.53;;
6751;SDS011;3413;47.680;9.166;2023-02-28T03:05:03;3.50;;;2.70;;
6751;SDS011;3413;47.680;9.166;2023-02-28T03:10:30;4.20;;;2.53;;
6751;SDS011;3413;47.680;9.166;2023-02-28T03:15:49;6.07;;;2.90;;
6751;SDS011;3413;47.680;9.166;2023-02-28T03:26:19;4.87;;;2.57;;
6751;SDS011;3413;47.680;9.166;2023-02-28T03:31:32;5.50;;;2.53;;
6751;SDS011;3413;47.680;9.166;2023-02-28T03:36:39;6.83;;;3.23;;
6751;SDS011;3413;47.680;9.166;2023-02-28T03:42:08;6.23;;;3.23;;
6751;SDS011;3413;47.680;9.166;2023-02-28T03:47:27;5.13;;;2.47;;
6751;SDS011;3413;47.680;9.166;2023-02-28T03:52:36;4.70;;;2.47;;
6751;SDS011;3413;47.680;9.166;2023-02-28T04:03:12;5.83;;;2.93;;
6751;SDS011;3413;47.680;9.166;2023-02-28T04:08:14;9.00;;;3.60;;
6751;SDS011;3413;47.680;9.166;2023-02-28T04:13:16;4.87;;;3.07;;
6751;SDS011;3413;47.680;9.166;2023-02-28T04:18:18;6.77;;;2.90;;
6751;SDS011;3413;47.680;9.166;2023-02-28T04:23:20;4.53;;;2.27;;
6751;SDS011;3413;47.680;9.166;2023-02-28T04:28:22;7.20;;;3.17;;
6751;SDS011;3413;47.680;9.166;2023-02-28T04:33:24;7.57;;;3.47;;
6751;SDS011;3413;47.680;9.166;2023-02-28T04:38:26;6.17;;;3.00;;
6751;SDS011;3413;47.680;9.166;2023-02-28T04:43:28;4.30;;;2.57;;
6751;SDS011;3413;47.680;9.166;2023-02-28T04:48:32;7.73;;;3.30;;
6751;SDS011;3413;47.680;9.166;2023-02-28T04:53:36;5.70;;;3.13;;
6751;SDS011;3413;47.680;9.166;2023-02-28T04:58:40;6.10;;;3.10;;
6751;SDS011;3413;47.680;9.166;2023-02-28T05:03:42;5.53;;;3.30;;
6751;SDS011;3413;47.680;9.166;2023-02-28T05:08:44;6.50;;;3.50;;
6751;SDS011;3413;47.680;9.166;2023-02-28T05:13:47;6.17;;;3.67;;
6751;SDS011;3413;47.680;9.166;2023-02-28T05:18:49;12.03;;;4.87;;
6751;SDS011;3413;47.680;9.166;2023-02-28T05:23:52;8.07;;;4.00;;
6751;SDS011;3413;47.680;9.166;2023-02-28T05:28:55;7.93;;;3.50;;
6751;SDS011;3413;47.680;9.166;2023-02-28T05:33:57;5.03;;;3.10;;
6751;SDS011;3413;47.680;9.166;2023-02-28T05:38:59;14.03;;;4.47;;
6751;SDS011;3413;47.680;9.166;2023-02-28T05:44:01;7.37;;;3.77;;
6751;SDS011;3413;47.680;9.166;2023-02-28T05:49:03;9.07;;;3.63;;
6751;SDS011;3413;47.680;9.166;2023-02-28T05:54:06;7.33;;;3.83;;
6751;SDS011;3413;47.680;9.166;2023-02-28T05:59:08;6.20;;;3.77;;
6751;SDS011;3413;47.680;9.166;2023-02-28T06:04:10;6.50;;;3.83;;
6751;SDS011;3413;47.680;9.166;2023-02-28T06:09:26;6.73;;;3.40;;
6751;SDS011;3413;47.680;9.166;2023-02-28T06:14:28;6.40;;;3.23;;
6751;SDS011;3413;47.680;9.166;2023-02-28T06:19:30;6.30;;;3.23;;
6751;SDS011;3413;47.680;9.166;2023-02-28T06:24:32;9.33;;;4.20;;
6751;SDS011;3413;47.680;9.166;2023-02-28T06:29:34;5.73;;;2.77;;
6751;SDS011;3413;47.680;9.166;2023-02-28T06:34:36;9.67;;;4.37;;
6751;SDS011;3413;47.680;9.166;2023-02-28T06:39:38;5.83;;;3.93;;
6751;SDS011;3413;47.680;9.166;2023-02-28T06:44:41;6.80;;;3.70;;
6751;SDS011;3413;47.680;9.166;2023-02-28T06:49:44;8.40;;;3.90;;
6751;SDS011;3413;47.680;9.166;2023-02-28T06:54:46;8.23;;;3.90;;
6751;SDS011;3413;47.680;9.166;2023-02-28T06:59:48;5.27;;;3.63;;
6751;SDS011;3413;47.680;9.166;2023-02-28T07:04:51;8.30;;;4.27;;
6751;SDS011;3413;47.680;9.166;2023-02-28T07:09:53;7.77;;;4.30;;
6751;SDS011;3413;47.680;9.166;2023-02-28T07:14:54;9.80;;;4.17;;
6751;SDS011;3413;47.680;9.166;2023-02-28T07:19:57;13.90;;;5.10;;
6751;SDS011;3413;47.680;9.166;2023-02-28T07:24:59;9.30;;;3.80;;
6751;SDS011;3413;47.680;9.166;2023-02-28T07:30:01;9.10;;;3.83;;
6751;SDS011;3413;47.680;9.166;2023-02-28T07:35:04;7.13;;;3.60;;
6751;SDS011;3413;47.680;9.166;2023-02-28T07:40:07;11.63;;;3.33;;
6751;SDS011;3413;47.680;9.166;2023-02-28T07:45:14;7.17;;;4.03;;
6751;SDS011;3413;47.680;9.166;2023-02-28T07:50:16;8.27;;;4.27;;
6751;SDS011;3413;47.680;9.166;2023-02-28T07:55:18;13.27;;;5.00;;
6751;SDS011;3413;47.680;9.166;2023-02-28T08:00:20;10.00;;;4.23;;
6751;SDS011;3413;47.680;9.166;2023-02-28T08:05:23;10.33;;;4.63;;
6751;SDS011;3413;47.680;9.166;2023-02-28T08:10:25;9.67;;;5.10;;
6751;SDS011;3413;47.680;9.166;2023-02-28T08:15:27;9.60;;;4.50;;
6751;SDS011;3413;47.680;9.166;2023-02-28T08:20:29;8.33;;;4.10;;
6751;SDS011;3413;47.680;9.166;2023-02-28T08:25:32;8.83;;;4.77;;
6751;SDS011;3413;47.680;9.166;2023-02-28T08:30:33;11.13;;;3.87;;
6751;SDS011;3413;47.680;9.166;2023-02-28T08:35:36;6.90;;;3.67;;
6751;SDS011;3413;47.680;9.166;2023-02-28T08:40:38;11.07;;;3.80;;
6751;SDS011;3413;47.680;9.166;2023-02-28T08:45:40;8.60;;;3.70;;
6751;SDS011;3413;47.680;9.166;2023-02-28T08:50:42;7.90;;;4.43;;
6751;SDS011;3413;47.680;9.166;2023-02-28T08:56:00;7.70;;;3.97;;
6751;SDS011;3413;47.680;9.166;2023-02-28T09:01:11;9.30;;;4.10;;
6751;SDS011;3413;47.680;9.166;2023-02-28T09:06:15;10.80;;;3.63;;
6751;SDS011;3413;47.680;9.166;2023-02-28T09:11:18;8.97;;;3.90;;
6751;SDS011;3413;47.680;9.166;2023-02-28T09:16:21;10.83;;;4.60;;
6751;SDS011;3413;47.680;9.166;2023-02-28T09:21:23;10.47;;;4.50;;
6751;SDS011;3413;47.680;9.166;2023-02-28T09:26:26;8.83;;;4.43;;
6751;SDS011;3413;47.680;9.166;2023-02-28T09:31:42;7.27;;;3.80;;
6751;SDS011;3413;47.680;9.166;2023-02-28T09:36:45;15.43;;;4.43;;
6751;SDS011;3413;47.680;9.166;2023-02-28T09:41:51;7.20;;;3.70;;
6751;SDS011;3413;47.680;9.166;2023-02-28T09:46:56;8.03;;;4.00;;
6751;SDS011;3413;47.680;9.166;2023-02-28T09:52:03;12.03;;;4.60;;
6751;SDS011;3413;47.680;9.166;2023-02-28T09:57:14;13.80;;;4.80;;
6751;SDS011;3413;47.680;9.166;2023-02-28T10:13:13;10.87;;;4.70;;
6751;SDS011;3413;47.680;9.166;2023-02-28T10:18:54;12.10;;;4.67;;
6751;SDS011;3413;47.680;9.166;2023-02-28T10:29:35;15.43;;;4.47;;
6751;SDS011;3413;47.680;9.166;2023-02-28T10:34:37;10.03;;;4.50;;
6751;SDS011;3413;47.680;9.166;2023-02-28T10:39:40;9.10;;;4.80;;
6751;SDS011;3413;47.680;9.166;2023-02-28T10:44:49;9.10;;;4.47;;
6751;SDS011;3413;47.680;9.166;2023-02-28T10:50:03;8.30;;;4.73;;
6751;SDS011;3413;47.680;9.166;2023-02-28T10:55:14;8.30;;;4.03;;
6751;SDS011;3413;47.680;9.166;2023-02-28T11:00:26;12.20;;;4.90;;
6751;SDS011;3413;47.680;9.166;2023-02-28T11:05:35;10.10;;;5.10;;
6751;SDS011;3413;47.680;9.166;2023-02-28T11:10:38;13.17;;;4.67;;
6751;SDS011;3413;47.680;9.166;2023-02-28T11:15:40;11.37;;;4.63;;
6751;SDS011;3413;47.680;9.166;2023-02-28T11:20:42;7.47;;;4.20;;
6751;SDS011;3413;47.680;9.166;2023-02-28T11:25:52;7.20;;;4.47;;
6751;SDS011;3413;47.680;9.166;2023-02-28T11:36:13;7.83;;;4.80;;
6751;SDS011;3413;47.680;9.166;2023-02-28T12:03:31;12.50;;;5.67;;
6751;SDS011;3413;47.680;9.166;2023-02-28T12:09:02;16.63;;;5.00;;
6751;SDS011;3413;47.680;9.166;2023-02-28T12:30:21;14.53;;;5.70;;
6751;SDS011;3413;47.680;9.166;2023-02-28T12:35:29;12.10;;;5.17;;
6751;SDS011;3413;47.680;9.166;2023-02-28T12:40:47;13.10;;;5.43;;
6751;SDS011;3413;47.680;9.166;2023-02-28T12:45:56;9.33;;;5.30;;
6751;SDS011;3413;47.680;9.166;2023-02-28T12:51:04;10.73;;;5.00;;
6751;SDS011;3413;47.680;9.166;2023-02-28T13:17:03;10.20;;;5.10;;
6751;SDS011;3413;47.680;9.166;2023-02-28T13:22:19;21.17;;;6.80;;
6751;SDS011;3413;47.680;9.166;2023-02-28T13:27:41;13.20;;;5.93;;
6751;SDS011;3413;47.680;9.166;2023-02-28T13:32:44;13.83;;;6.53;;
6751;SDS011;3413;47.680;9.166;2023-02-28T13:37:47;12.07;;;5.80;;
6751;SDS011;3413;47.680;9.166;2023-02-28T13:42:51;15.07;;;6.27;;
6751;SDS011;3413;47.680;9.166;2023-02-28T13:48:03;21.20;;;6.30;;
6751;SDS011;3413;47.680;9.166;2023-02-28T14:19:38;16.13;;;6.67;;
6751;SDS011;3413;47.680;9.166;2023-02-28T14:40:21;12.60;;;6.40;;
6751;SDS011;3413;47.680;9.166;2023-02-28T14:45:32;16.30;;;6.67;;
6751;SDS011;3413;47.680;9.166;2023-02-28T14:50:36;16.77;;;7.60;;
6751;SDS011;3413;47.680;9.166;2023-02-28T14:55:43;16.37;;;6.80;;
6751;SDS011;3413;47.680;9.166;2023-02-28T15:00:48;17.43;;;6.60;;
6751;SDS011;3413;47.680;9.166;2023-02-28T15:05:51;18.63;;;7.10;;
6751;SDS011;3413;47.680;9.166;2023-02-28T15:10:57;22.97;;;7.20;;
6751;SDS011;3413;47.680;9.166;2023-02-28T15:16:02;18.20;;;7.17;;
6751;SDS011;3413;47.680;9.166;2023-02-28T15:21:07;11.83;;;5.43;;
6751;SDS011;3413;47.680;9.166;2023-02-28T15:26:22;15.60;;;7.00;;
6751;SDS011;3413;47.680;9.166;2023-02-28T15:31:33;14.53;;;6.20;;
6751;SDS011;3413;47.680;9.166;2023-02-28T15:36:57;14.30;;;6.10;;
6751;SDS011;3413;47.680;9.166;2023-02-28T15:42:12;16.97;;;6.30;;
6751;SDS011;3413;47.680;9.166;2023-02-28T15:47:23;15.63;;;6.10;;
6751;SDS011;3413;47.680;9.166;2023-02-28T15:52:34;17.20;;;6.80;;
6751;SDS011;3413;47.680;9.166;2023-02-28T15:57:41;16.30;;;6.83;;
6751;SDS011;3413;47.680;9.166;2023-02-28T16:02:43;13.60;;;6.80;;
6751;SDS011;3413;47.680;9.166;2023-02-28T16:07:46;13.80;;;6.93;;
6751;SDS011;3413;47.680;9.166;2023-02-28T16:12:50;13.83;;;6.80;;
6751;SDS011;3413;47.680;9.166;2023-02-28T16:17:53;15.80;;;6.53;;
6751;SDS011;3413;47.680;9.166;2023-02-28T16:22:56;12.73;;;6.60;;
6751;SDS011;3413;47.680;9.166;2023-02-28T16:28:02;16.17;;;6.77;;
6751;SDS011;3413;47.680;9.166;2023-02-28T16:33:07;17.80;;;7.03;;
6751;SDS011;3413;47.680;9.166;2023-02-28T16:38:09;15.40;;;7.03;;
6751;SDS011;3413;47.680;9.166;2023-02-28T16:43:22;19.20;;;7.70;;
6751;SDS011;3413;47.680;9.166;2023-02-28T16:48:26;19.30;;;7.80;;
6751;SDS011;3413;47.680;9.166;2023-02-28T16:53:27;15.20;;;7.13;;
6751;SDS011;3413;47.680;9.166;2023-02-28T16:58:29;15.23;;;7.30;;
6751;SDS011;3413;47.680;9.166;2023-02-28T17:03:31;20.73;;;7.40;;
6751;SDS011;3413;47.680;9.166;2023-02-28T17:08:34;16.50;;;7.93;;
6751;SDS011;3413;47.680;9.166;2023-02-28T17:13:36;14.40;;;6.50;;
6751;SDS011;3413;47.680;9.166;2023-02-28T17:18:38;17.20;;;6.80;;
6751;SDS011;3413;47.680;9.166;2023-02-28T17:23:40;15.00;;;6.93;;
6751;SDS011;3413;47.680;9.166;2023-02-28T17:28:42;20.63;;;7.50;;
6751;SDS011;3413;47.680;9.166;2023-02-28T17:33:44;18.87;;;8.00;;
6751;SDS011;3413;47.680;9.166;2023-02-28T17:38:46;16.77;;;7.67;;
6751;SDS011;3413;47.680;9.166;2023-02-28T17:43:48;15.27;;;6.53;;
6751;SDS011;3413;47.680;9.166;2023-02-28T17:48:52;20.37;;;7.87;;
6751;SDS011;3413;47.680;9.166;2023-02-28T17:53:54;17.73;;;7.90;;
6751;SDS011;3413;47.680;9.166;2023-02-28T17:58:56;21.50;;;8.73;;
6751;SDS011;3413;47.680;9.166;2023-02-28T18:03:58;20.83;;;7.67;;
6751;SDS011;3413;47.680;9.166;2023-02-28T18:09:00;19.00;;;8.70;;
6751;SDS011;3413;47.680;9.166;2023-02-28T18:14:02;17.37;;;8.00;;
6751;SDS011;3413;47.680;9.166;2023-02-28T18:19:04;14.57;;;6.27;;
6751;SDS011;3413;47.680;9.166;2023-02-28T18:24:07;20.90;;;8.13;;
6751;SDS011;3413;47.680;9.166;2023-02-28T18:29:17;23.97;;;8.00;;
6751;SDS011;3413;47.680;9.166;2023-02-28T18:34:24;20.87;;;8.77;;
6751;SDS011;3413;47.680;9.166;2023-02-28T18:39:26;19.60;;;8.50;;
6751;SDS011;3413;47.680;9.166;2023-02-28T18:44:30;17.60;;;7.60;;
6751;SDS011;3413;47.680;9.166;2023-02-28T18:49:32;20.73;;;7.47;;
6751;SDS011;3413;47.680;9.166;2023-02-28T18:54:35;15.30;;;7.83;;
6751;SDS011;3413;47.680;9.166;2023-02-28T18:59:37;18.50;;;8.03;;
6751;SDS011;3413;47.680;9.166;2023-02-28T19:04:40;19.43;;;8.30;;
6751;SDS011;3413;47.680;9.166;2023-02-28T19:09:42;18.70;;;7.90;;
6751;SDS011;3413;47.680;9.166;2023-02-28T19:14:44;20.60;;;7.47;;
6751;SDS011;3413;47.680;9.166;2023-02-28T19:19:47;15.67;;;7.40;;
6751;SDS011;3413;47.680;9.166;2023-02-28T19:24:49;17.97;;;8.23;;
6751;SDS011;3413;47.680;9.166;2023-02-28T19:29:51;16.00;;;7.37;;
6751;SDS011;3413;47.680;9.166;2023-02-28T19:34:53;20.37;;;8.53;;
6751;SDS011;3413;47.680;9.166;2023-02-28T19:39:55;18.97;;;8.07;;
6751;SDS011;3413;47.680;9.166;2023-02-28T19:44:58;20.27;;;8.10;;
6751;SDS011;3413;47.680;9.166;2023-02-28T19:50:00;16.90;;;7.87;;
6751;SDS011;3413;47.680;9.166;2023-02-28T19:55:02;15.63;;;8.10;;
6751;SDS011;3413;47.680;9.166;2023-02-28T20:00:04;16.30;;;7.90;;
6751;SDS011;3413;47.680;9.166;2023-02-28T20:05:12;19.50;;;8.23;;
6751;SDS011;3413;47.680;9.166;2023-02-28T20:10:14;19.03;;;8.73;;
6751;SDS011;3413;47.680;9.166;2023-02-28T20:15:16;19.83;;;8.90;;
6751;SDS011;3413;47.680;9.166;2023-02-28T20:20:18;20.70;;;8.53;;
6751;SDS011;3413;47.680;9.166;2023-02-28T20:25:20;17.07;;;8.70;;
6751;SDS011;3413;47.680;9.166;2023-02-28T20:30:22;18.17;;;9.10;;
6751;SDS011;3413;47.680;9.166;2023-02-28T20:35:25;19.57;;;9.10;;
6751;SDS011;3413;47.680;9.166;2023-02-28T20:40:27;19.60;;;9.30;;
6751;SDS011;3413;47.680;9.166;2023-02-28T20:45:29;18.30;;;8.13;;
6751;SDS011;3413;47.680;9.166;2023-02-28T20:50:31;19.57;;;9.07;;
6751;SDS011;3413;47.680;9.166;2023-02-28T20:55:33;18.97;;;9.37;;
6751;SDS011;3413;47.680;9.166;2023-02-28T21:00:35;16.37;;;8.27;;
6751;SDS011;3413;47.680;9.166;2023-02-28T21:05:38;19.20;;;7.90;;
6751;SDS011;3413;47.680;9.166;2023-02-28T21:10:40;20.37;;;9.10;;
6751;SDS011;3413;47.680;9.166;2023-02-28T21:15:42;17.97;;;7.97;;
6751;SDS011;3413;47.680;9.166;2023-02-28T21:20:44;18.40;;;8.67;;
6751;SDS011;3413;47.680;9.166;2023-02-28T21:25:46;23.90;;;9.33;;
6751;SDS011;3413;47.680;9.166;2023-02-28T21:30:48;22.83;;;9.03;;
6751;SDS011;3413;47.680;9.166;2023-02-28T21:35:50;22.27;;;8.80;;
6751;SDS011;3413;47.680;9.166;2023-02-28T21:40:53;21.00;;;8.67;;
6751;SDS011;3413;47.680;9.166;2023-02-28T21:45:55;16.93;;;7.73;;
6751;SDS011;3413;47.680;9.166;2023-02-28T21:50:57;23.90;;;8.83;;
6751;SDS011;3413;47.680;9.166;2023-02-28T21:56:03;22.23;;;9.57;;
6751;SDS011;3413;47.680;9.166;2023-02-28T22:06:16;18.73;;;9.70;;
6751;SDS011;3413;47.680;9.166;2023-02-28T22:11:23;17.20;;;8.53;;
6751;SDS011;3413;47.680;9.166;2023-02-28T22:16:27;22.20;;;8.70;;
6751;SDS011;3413;47.680;9.166;2023-02-28T22:21:36;22.37;;;9.23;;
6751;SDS011;3413;47.680;9.166;2023-02-28T22:26:38;25.27;;;9.37;;
6751;SDS011;3413;47.680;9.166;2023-02-28T22:31:40;19.40;;;8.83;;
6751;SDS011;3413;47.680;9.166;2023-02-28T22:36:43;19.40;;;8.70;;
6751;SDS011;3413;47.680;9.166;2023-02-28T22:41:45;22.73;;;9.90;;
6751;SDS011;3413;47.680;9.166;2023-02-28T22:46:51;20.47;;;9.60;;
6751;SDS011;3413;47.680;9.166;2023-02-28T22:51:54;31.17;;;9.63;;
6751;SDS011;3413;47.680;9.166;2023-02-28T22:56:56;19.13;;;8.70;;
6751;SDS011;3413;47.680;9.166;2023-02-28T23:01:57;25.90;;;9.10;;
6751;SDS011;3413;47.680;9.166;2023-02-28T23:07:00;19.67;;;9.10;;
6751;SDS011;3413;47.680;9.166;2023-02-28T23:12:01;21.27;;;9.30;;
6751;SDS011;3413;47.680;9.166;2023-02-28T23:17:03;19.43;;;8.57;;
6751;SDS011;3413;47.680;9.166;2023-02-28T23:22:06;18.70;;;7.77;;
6751;SDS011;3413;47.680;9.166;2023-02-28T23:27:08;18.27;;;7.60;;
6751;SDS011;3413;47.680;9.166;2023-02-28T23:32:10;17.30;;;8.80;;
6751;SDS011;3413;47.680;9.166;2023-02-28T23:37:12;23.63;;;8.77;;
6751;SDS011;3413;47.680;9.166;2023-02-28T23:42:13;24.40;;;8.60;;
6751;SDS011;3413;47.680;9.166;2023-02-28T23:47:15;21.17;;;8.80;;
6751;SDS011;3413;47.680;9.166;2023-02-28T23:52:17;20.77;;;8.63;;
6751;SDS011;3413;47.680;9.166;2023-02-28T23:57:19;18.53;;;8.00;;
